Ketchikan, Alaska
Current Conditions -  °F | °C
As of 1:53 PM on Tuesday 21 Oct 2014 (Local Time) from PAKT Reporting Station
Light Rain Light Rain  
Wind Chill: 50°   Ceiling: 2000
Heat Index: 50°   Visibility: 10mi
Dew Point: 44°   Wind: 30mph
Humidity: 80%   Direction: 130°SE
Pressure: 29.2"   Gusts: 37mph
Location:  55.35°N, 131.69°W
Report Text: PAKT 212153Z 13026G32KT 10SM -RA BKN020 OVC042 10/07 A2920 RMK AO2 PK WND 12041/2107 RAB23 SLP888 P0000 T01000067
Loading
Personal Weather Stations






























Interactive Weather Map New forecast layout! Learn more

10-Day Weather Forecast

Advertisements
Track Severe Weather on mobile